Time;durP1;ratioP1;P1;durP2;ratioP2;P2;SDS_P1;SDS_P2;PMS_P1;PMS_P2;Temp;Humidity;BMP_temperature;BMP_pressure;BME280_temperature;BME280_humidity;BME280_pressure;Samples;Min_cycle;Max_cycle;Signal;HPM_P1;HPM_P2
2022/08/12 00:44:55;;;;;;;3.75;1.40;;;;;;;21.39;37.89;101339.00;5039586;28;20106;-48
2022/08/12 00:47:21;;;;;;;4.38;1.88;;;;;;;21.24;38.36;101342.25;5074256;28;20107;-49
2022/08/12 00:49:48;;;;;;;2.10;1.60;;;;;;;21.19;38.59;101342.16;5074179;28;20044;-48
2022/08/12 00:52:15;;;;;;;3.22;1.55;;;;;;;21.13;38.44;101337.69;5074067;28;20073;-48
2022/08/12 00:54:44;;;;;;;2.80;1.40;;;;;;;21.13;38.48;101341.22;5074158;28;20024;-48
2022/08/12 00:57:14;;;;;;;2.55;1.60;;;;;;;21.02;39.26;101339.38;5056686;28;20028;-48
2022/08/12 00:59:44;;;;;;;3.08;1.60;;;;;;;20.85;38.97;101336.56;5074262;28;20032;-50
2022/08/12 01:02:14;;;;;;;2.85;1.67;;;;;;;20.81;39.34;101327.19;5074195;28;20028;-48
2022/08/12 01:13:01;;;;;;;3.47;1.02;;;;;;;20.57;39.35;101310.81;5059351;28;20108;-48
2022/08/12 01:15:27;;;;;;;3.03;1.50;;;;;;;20.57;39.28;101319.00;5074209;28;20028;-50
2022/08/12 01:17:54;;;;;;;4.00;1.35;;;;;;;20.53;39.14;101297.91;5073895;28;20043;-50
2022/08/12 01:20:34;;;;;;;2.55;1.10;;;;;;;20.65;40.07;101315.09;5074087;28;20032;-53
2022/08/12 01:23:26;;;;;;;2.00;1.20;;;;;;;20.63;40.67;101317.25;5073907;28;20119;-53
2022/08/12 01:25:54;;;;;;;1.58;1.20;;;;;;;20.53;39.37;101309.66;5038960;28;20029;-53
2022/08/12 01:28:26;;;;;;;1.80;1.20;;;;;;;20.34;39.80;101298.06;5055747;28;20039;-48
2022/08/12 01:30:53;;;;;;;3.65;1.40;;;;;;;20.31;39.76;101304.78;5072897;28;20032;-48
2022/08/12 01:33:20;;;;;;;3.53;1.38;;;;;;;20.27;39.84;101306.34;5055910;28;20028;-48
2022/08/12 01:35:53;;;;;;;2.63;1.40;;;;;;;20.14;40.04;101292.94;5055746;28;20146;-49
2022/08/12 01:38:21;;;;;;;1.75;1.38;;;;;;;20.18;40.16;101304.22;5073781;28;20027;-49
2022/08/12 01:40:48;;;;;;;3.40;1.50;;;;;;;20.20;40.05;101307.53;5055617;28;20028;-48
2022/08/12 01:43:20;;;;;;;1.10;0.98;;;;;;;20.21;40.58;101304.56;5073893;28;20033;-49
2022/08/12 01:46:13;;;;;;;5.22;1.48;;;;;;;20.17;41.26;101311.56;5055518;28;20029;-51
2022/08/12 01:49:06;;;;;;;3.58;1.40;;;;;;;20.14;41.84;101306.59;5041596;28;20043;-50
2022/08/12 01:51:42;;;;;;;2.05;1.35;;;;;;;20.03;40.95;101299.22;5072864;28;20051;-50
2022/08/12 01:54:12;;;;;;;10.52;1.90;;;;;;;19.94;40.86;101295.19;5073601;28;20025;-49
2022/08/12 01:56:50;;;;;;;1.92;1.70;;;;;;;19.86;40.78;101289.03;5073493;28;20039;-50
2022/08/12 02:02:21;;;;;;;5.30;1.70;;;;;;;19.82;41.59;101285.09;5058542;28;20051;-48
2022/08/12 02:11:33;;;;;;;1.15;1.08;;;;;;;19.61;41.86;101264.66;5062543;28;20036;-52
2022/08/12 02:14:29;;;;;;;1.40;1.30;;;;;;;19.61;42.82;101272.00;5077310;28;20550;-49
2022/08/12 02:17:18;;;;;;;1.10;0.90;;;;;;;19.58;41.39;101267.03;5076358;28;20040;-49
2022/08/12 02:20:21;;;;;;;3.92;1.50;;;;;;;19.61;42.56;101277.44;5075840;28;20095;-48
2022/08/12 02:22:49;;;;;;;2.30;1.48;;;;;;;19.40;41.46;101274.19;5077249;28;20021;-48
2022/08/12 02:25:28;;;;;;;4.57;1.48;;;;;;;19.34;43.21;101266.97;5076790;28;20040;-49
2022/08/12 02:27:55;;;;;;;3.20;1.30;;;;;;;19.31;41.83;101270.97;5077254;28;20032;-49
2022/08/12 02:30:24;;;;;;;2.20;1.33;;;;;;;19.29;42.17;101278.53;5076731;28;20103;-50
2022/08/12 02:32:52;;;;;;;1.92;1.33;;;;;;;19.24;42.15;101296.63;5075455;28;20091;-49
2022/08/12 02:35:21;;;;;;;1.40;1.00;;;;;;;19.24;42.37;101283.03;5076790;28;20048;-50
2022/08/12 02:37:51;;;;;;;4.30;1.42;;;;;;;19.17;42.30;101283.13;5075386;28;20461;-49
2022/08/12 02:40:18;;;;;;;4.80;1.40;;;;;;;19.09;42.76;101270.69;5076879;28;20029;-48
2022/08/12 02:42:54;;;;;;;5.35;1.50;;;;;;;19.02;43.49;101277.25;5076346;28;20028;-51
2022/08/12 02:45:32;;;;;;;4.15;1.23;;;;;;;18.98;43.30;101276.06;5058344;28;20028;-49
2022/08/12 02:48:05;;;;;;;3.15;1.27;;;;;;;18.86;43.32;101262.41;5058366;28;20033;-48
2022/08/12 02:50:38;;;;;;;1.47;1.20;;;;;;;18.90;42.98;101266.31;5047121;28;20049;-50
2022/08/12 02:53:06;;;;;;;2.25;1.10;;;;;;;18.86;43.24;101262.41;5038550;28;20033;-48
2022/08/12 02:55:35;;;;;;;1.95;1.45;;;;;;;18.82;43.41;101269.38;5056106;28;20025;-48
2022/08/12 02:58:03;;;;;;;2.30;1.40;;;;;;;18.74;43.36;101265.84;5056674;28;20362;-49
2022/08/12 03:00:30;;;;;;;6.40;1.30;;;;;;;18.77;43.57;101272.72;5056595;28;20036;-50
2022/08/12 03:03:03;;;;;;;2.28;1.40;;;;;;;18.79;43.75;101267.88;5056216;28;20021;-51
2022/08/12 03:05:34;;;;;;;3.78;1.35;;;;;;;18.78;43.42;101268.97;5056477;28;20025;-48
2022/08/12 03:08:04;;;;;;;3.65;1.52;;;;;;;18.71;43.50;101276.38;5038324;28;20488;-49
2022/08/12 03:10:38;;;;;;;2.08;1.38;;;;;;;18.67;43.60;101273.28;5056174;28;20054;-49
2022/08/12 03:13:05;;;;;;;1.73;1.15;;;;;;;18.60;43.91;101266.25;5056276;28;20036;-49
2022/08/12 03:15:32;;;;;;;5.03;1.67;;;;;;;18.50;44.25;101250.47;5055145;28;20029;-50
2022/08/12 03:18:13;;;;;;;5.75;1.65;;;;;;;18.48;45.15;101260.72;5037975;28;20036;-49
2022/08/12 03:20:39;;;;;;;2.53;1.35;;;;;;;18.44;44.42;101254.91;5055997;28;20453;-51
2022/08/12 03:23:10;;;;;;;3.40;1.60;;;;;;;18.30;44.98;101226.22;5038502;28;20025;-52
2022/08/12 03:25:40;;;;;;;2.10;1.30;;;;;;;18.38;45.02;101240.31;5055770;28;20480;-51
2022/08/12 03:28:48;;;;;;;1.80;1.30;;;;;;;18.29;44.99;101235.41;5055930;28;20465;-52
2022/08/12 03:31:02;;;;;;;3.05;1.60;;;;;;;18.37;45.36;101246.81;5027811;28;20025;-51
2022/08/12 03:33:33;;;;;;;1.75;1.38;;;;;;;18.37;45.07;101230.50;5055611;28;20031;-48
2022/08/12 03:36:02;;;;;;;5.88;1.48;;;;;;;18.32;45.40;101232.25;5038074;28;20037;-50
2022/08/12 03:38:31;;;;;;;2.25;1.70;;;;;;;18.34;45.65;101232.84;5055539;28;20112;-50
2022/08/12 04:01:01;;;;;;;3.72;1.60;;;;;;;18.06;46.24;101230.66;5040314;28;20521;-49
2022/08/12 04:06:13;;;;;;;4.78;1.58;;;;;;;18.05;46.49;101239.84;5040138;28;20029;-49
2022/08/12 04:08:40;;;;;;;2.50;1.50;;;;;;;18.02;46.27;101232.97;5054521;28;20029;-47
2022/08/12 04:13:51;;;;;;;4.82;1.52;;;;;;;17.95;47.18;101237.66;5039730;28;20025;-49
2022/08/12 04:16:19;;;;;;;2.22;1.83;;;;;;;17.86;46.76;101228.94;5054801;28;20040;-49
2022/08/12 04:18:45;;;;;;;4.10;1.48;;;;;;;17.84;47.17;101236.44;5054747;28;20362;-49
2022/08/12 04:21:11;;;;;;;5.53;2.05;;;;;;;17.71;46.79;101225.72;5055086;28;20033;-47
2022/08/12 04:23:41;;;;;;;1.88;1.60;;;;;;;17.80;47.16;101240.69;5054340;28;20021;-47
2022/08/12 04:26:06;;;;;;;1.98;1.40;;;;;;;17.76;47.18;101244.91;5055020;28;20029;-49
2022/08/12 04:28:33;;;;;;;5.47;2.13;;;;;;;17.70;47.28;101240.31;5054099;28;20032;-48
2022/08/12 04:30:59;;;;;;;3.75;1.75;;;;;;;17.67;47.42;101233.47;5054547;28;20025;-49
2022/08/12 04:33:25;;;;;;;8.15;1.85;;;;;;;17.65;47.69;101230.16;5054055;28;20029;-50
2022/08/12 04:35:52;;;;;;;1.60;1.50;;;;;;;17.63;47.58;101234.16;5053724;28;20036;-47
2022/08/12 04:38:18;;;;;;;2.80;1.70;;;;;;;17.53;47.84;101224.59;5054194;28;20478;-47
2022/08/12 04:40:45;;;;;;;2.03;1.70;;;;;;;17.49;48.02;101223.38;5036389;28;20041;-49
2022/08/12 04:43:11;;;;;;;1.40;1.27;;;;;;;17.49;48.63;101238.84;5054100;28;20032;-47
2022/08/12 04:45:37;;;;;;;3.05;2.30;;;;;;;17.39;49.39;101229.28;5055059;28;20073;-48
2022/08/12 04:48:05;;;;;;;6.53;2.35;;;;;;;17.33;48.82;101232.06;5055725;28;20044;-50
2022/08/12 04:50:31;;;;;;;3.03;2.13;;;;;;;17.33;48.29;101226.66;5066245;28;20063;-48
2022/08/12 04:52:59;;;;;;;2.97;1.90;;;;;;;17.38;48.28;101237.66;5075040;28;20477;-48
2022/08/12 04:55:26;;;;;;;6.70;2.28;;;;;;;17.31;48.41;101223.28;5075284;28;20089;-47
2022/08/12 04:57:53;;;;;;;2.90;2.08;;;;;;;17.32;48.37;101224.97;5057101;28;20028;-49
2022/08/12 05:00:20;;;;;;;1.63;1.52;;;;;;;17.24;48.57;101225.25;5072862;28;20025;-48
2022/08/12 05:02:46;;;;;;;2.45;1.90;;;;;;;17.34;48.41;101245.41;5074025;28;20082;-47
2022/08/12 05:05:18;;;;;;;5.53;2.60;;;;;;;17.28;49.21;101229.19;5074287;28;20031;-46
2022/08/12 05:07:44;;;;;;;2.55;2.28;;;;;;;17.29;48.10;101237.09;5072646;28;20032;-51
2022/08/12 05:10:10;;;;;;;2.90;1.80;;;;;;;17.22;48.71;101239.84;5039253;28;20392;-49
2022/08/12 05:12:41;;;;;;;7.20;1.83;;;;;;;17.28;48.57;101245.47;5056003;28;20060;-47
2022/08/12 05:15:08;;;;;;;4.47;2.53;;;;;;;17.21;49.17;101249.03;5074262;28;20036;-47
2022/08/12 05:17:33;;;;;;;5.30;2.10;;;;;;;17.22;48.61;101250.72;5056244;28;20036;-47
2022/08/12 05:19:59;;;;;;;2.20;2.00;;;;;;;17.19;48.72;101245.72;5073995;28;20032;-48
2022/08/12 05:22:26;;;;;;;1.70;1.33;;;;;;;17.17;48.86;101250.53;5056342;28;20032;-47
2022/08/12 05:24:52;;;;;;;5.15;2.00;;;;;;;17.16;49.33;101253.47;5073957;28;20025;-47
2022/08/12 05:27:21;;;;;;;3.95;2.10;;;;;;;17.09;49.55;101244.53;5055935;28;20059;-46
2022/08/12 05:29:48;;;;;;;3.83;1.90;;;;;;;17.13;49.00;101251.19;5073885;28;20070;-50
2022/08/12 05:32:19;;;;;;;7.32;2.30;;;;;;;17.14;49.21;101248.28;5055897;28;20036;-47
2022/08/12 05:34:47;;;;;;;3.22;1.83;;;;;;;17.19;49.21;101259.28;5073806;28;20491;-48
2022/08/12 05:37:14;;;;;;;2.35;2.13;;;;;;;17.23;49.65;101267.81;5073863;28;20048;-47
2022/08/12 05:39:40;;;;;;;3.03;2.42;;;;;;;17.20;49.25;101257.41;5075733;28;20051;-49
2022/08/12 05:42:08;;;;;;;2.08;1.55;;;;;;;17.22;49.22;101250.72;5077653;28;20036;-49
2022/08/12 05:44:34;;;;;;;2.38;1.98;;;;;;;17.29;49.38;101261.53;5076482;28;20036;-48
2022/08/12 05:47:00;;;;;;;1.95;1.73;;;;;;;17.27;49.20;101255.47;5076408;28;20042;-47
2022/08/12 05:49:28;;;;;;;2.38;2.17;;;;;;;17.34;49.16;101277.16;5076367;28;20036;-47
2022/08/12 05:51:54;;;;;;;2.80;2.28;;;;;;;17.37;49.21;101272.13;5077905;28;20059;-49
2022/08/12 05:54:20;;;;;;;4.43;1.90;;;;;;;17.39;49.46;101266.47;5077572;28;20086;-48
2022/08/12 05:56:47;;;;;;;2.10;1.90;;;;;;;17.31;49.59;101259.44;5077668;28;20032;-50
2022/08/12 05:59:13;;;;;;;3.58;2.25;;;;;;;17.43;49.39;101275.84;5077655;28;20029;-48
2022/08/12 06:01:41;;;;;;;1.98;1.88;;;;;;;17.45;49.72;101273.75;5077385;28;20126;-49
2022/08/12 06:04:08;;;;;;;6.60;2.50;;;;;;;17.37;50.55;101265.88;5077507;28;20097;-47
2022/08/12 06:06:37;;;;;;;6.28;2.60;;;;;;;17.40;50.68;101265.41;5076162;28;20483;-51
2022/08/12 06:09:03;;;;;;;4.13;3.20;;;;;;;17.22;53.42;101264.28;5077702;28;20029;-48
2022/08/12 06:11:29;;;;;;;4.05;2.50;;;;;;;17.23;51.73;101256.97;5077241;28;20032;-47
2022/08/12 06:13:57;;;;;;;3.17;2.20;;;;;;;17.30;51.23;101255.03;5077063;28;20028;-48
2022/08/12 06:16:24;;;;;;;3.53;2.30;;;;;;;17.41;51.50;101265.19;5077030;28;20024;-48
2022/08/12 06:18:50;;;;;;;5.72;2.03;;;;;;;17.53;50.83;101272.63;5059116;28;20521;-49
2022/08/12 06:21:20;;;;;;;4.88;2.40;;;;;;;17.60;50.80;101276.97;5076830;28;20518;-48
2022/08/12 06:23:47;;;;;;;4.30;2.63;;;;;;;17.66;50.75;101277.16;5077370;28;20104;-52
2022/08/12 06:26:15;;;;;;;2.65;2.42;;;;;;;17.68;51.04;101275.03;5075632;28;20078;-49
2022/08/12 06:28:42;;;;;;;3.20;2.47;;;;;;;17.65;51.58;101262.75;5077035;28;20557;-47
2022/08/12 06:31:14;;;;;;;5.72;2.78;;;;;;;17.59;51.88;101258.19;5077056;28;20115;-47
2022/08/12 06:33:43;;;;;;;6.50;2.80;;;;;;;17.70;51.12;101268.34;5075972;28;20032;-48
2022/08/12 06:36:10;;;;;;;7.40;2.90;;;;;;;17.77;51.12;101274.56;5077175;28;20083;-47
2022/08/12 06:38:36;;;;;;;3.15;2.70;;;;;;;17.72;51.15;101249.94;5078258;28;20037;-48
2022/08/12 06:43:50;;;;;;;8.45;3.13;;;;;;;17.85;51.39;101261.75;5066241;28;20029;-47
2022/08/12 06:46:16;;;;;;;2.78;2.30;;;;;;;17.91;51.25;101261.72;5045101;28;20123;-51
2022/08/12 06:48:42;;;;;;;5.78;2.67;;;;;;;17.85;51.89;101262.63;5062449;28;20037;-52
2022/08/12 06:51:09;;;;;;;10.48;3.92;;;;;;;17.95;52.14;101265.66;5080602;28;20048;-48
2022/08/12 06:53:36;;;;;;;3.50;2.28;;;;;;;18.00;51.71;101267.72;5081819;28;20028;-50
2022/08/12 06:56:02;;;;;;;6.13;5.00;;;;;;;18.06;53.02;101279.56;5077643;28;20498;-48
2022/08/12 06:58:30;;;;;;;5.05;4.13;;;;;;;17.99;53.48;101275.00;5078432;28;20029;-48
2022/08/12 07:00:57;;;;;;;10.15;4.40;;;;;;;18.05;52.34;101265.13;5077237;28;20405;-49
2022/08/12 07:03:27;;;;;;;8.57;4.18;;;;;;;17.95;53.96;101254.78;5078257;28;20062;-49
2022/08/12 07:05:57;;;;;;;9.68;4.07;;;;;;;18.09;53.29;101268.22;5077386;28;20089;-47
2022/08/12 07:08:27;;;;;;;10.32;4.88;;;;;;;18.16;54.47;101275.28;5078393;28;20033;-50
2022/08/12 07:10:58;;;;;;;6.50;2.70;;;;;;;18.22;52.97;101276.28;5079511;28;20124;-48
2022/08/12 07:13:34;;;;;;;9.75;4.32;;;;;;;18.23;56.89;101272.50;5079309;28;20043;-47
2022/08/12 07:16:01;;;;;;;4.28;3.88;;;;;;;18.23;54.46;101267.06;5060525;28;20104;-48
2022/08/12 07:18:31;;;;;;;8.95;3.95;;;;;;;18.30;55.44;101256.94;5078366;28;20041;-47
2022/08/12 07:21:00;;;;;;;7.85;3.60;;;;;;;18.27;54.49;101242.97;5079539;28;20043;-49
2022/08/12 07:23:27;;;;;;;7.65;4.35;;;;;;;18.33;54.03;101247.50;5062140;28;20108;-51
2022/08/12 07:25:53;;;;;;;4.40;3.63;;;;;;;18.40;54.62;101244.72;5078334;28;20024;-51
2022/08/12 07:28:22;;;;;;;8.27;3.90;;;;;;;18.50;54.27;101251.28;5077785;28;20051;-47
2022/08/12 07:30:49;;;;;;;6.72;3.50;;;;;;;18.53;54.86;101248.09;5075652;28;20032;-48
2022/08/12 07:33:17;;;;;;;6.65;4.40;;;;;;;18.62;55.18;101264.13;5075763;28;20416;-47
2022/08/12 07:35:46;;;;;;;9.55;4.53;;;;;;;18.66;56.70;101260.72;5057889;28;20029;-47
2022/08/12 07:38:35;;;;;;;5.63;4.43;;;;;;;18.72;57.90;101257.09;5076035;28;20024;-47
2022/08/12 07:41:21;;;;;;;11.48;3.92;;;;;;;18.76;56.39;101243.88;5074477;28;20059;-48
2022/08/12 07:43:50;;;;;;;8.02;3.67;;;;;;;18.90;54.63;101256.25;5075672;28;20024;-50
2022/08/12 07:46:20;;;;;;;4.70;3.53;;;;;;;18.97;54.92;101249.91;5058365;28;20469;-48
2022/08/12 07:48:49;;;;;;;4.38;3.53;;;;;;;19.03;54.56;101244.34;5075556;28;20036;-47
2022/08/12 07:51:16;;;;;;;6.60;3.45;;;;;;;19.10;54.81;101245.09;5057394;28;20544;-48
2022/08/12 07:53:42;;;;;;;3.30;3.00;;;;;;;19.05;54.72;101228.63;5075369;28;20033;-51
2022/08/12 07:56:09;;;;;;;5.28;4.22;;;;;;;19.22;54.36;101247.84;5074978;28;20039;-49
2022/08/12 07:58:38;;;;;;;8.40;3.78;;;;;;;19.22;54.15;101233.41;5075015;28;20033;-51
2022/08/12 08:01:09;;;;;;;3.75;3.35;;;;;;;19.38;54.07;101243.66;5075425;28;20035;-52
2022/08/12 08:03:36;;;;;;;5.63;4.03;;;;;;;19.48;53.88;101245.78;5075229;28;20068;-51
2022/08/12 08:06:03;;;;;;;7.95;3.90;;;;;;;19.53;55.27;101240.47;5075139;28;20028;-50
2022/08/12 08:08:29;;;;;;;4.00;3.65;;;;;;;19.66;54.69;101244.88;5057398;28;20076;-51
2022/08/12 08:13:45;;;;;;;6.03;4.20;;;;;;;19.77;55.56;101232.38;5059879;28;20465;-50
2022/08/12 08:16:14;;;;;;;6.28;4.07;;;;;;;19.97;54.84;101240.19;5075069;28;20111;-53
2022/08/12 08:18:40;;;;;;;7.43;4.88;;;;;;;20.09;55.65;101238.28;5074756;28;20036;-49
2022/08/12 08:21:07;;;;;;;7.18;4.18;;;;;;;20.16;54.52;101238.16;5074936;28;20020;-49
2022/08/12 08:26:21;;;;;;;7.68;3.50;;;;;;;20.35;53.66;101239.69;5060285;28;20056;-49
2022/08/12 08:28:47;;;;;;;5.97;2.70;;;;;;;20.37;53.70;101225.81;5074661;28;20032;-53
2022/08/12 08:31:13;;;;;;;2.70;2.50;;;;;;;20.60;53.44;101241.31;5074298;28;20354;-52
2022/08/12 08:33:40;;;;;;;5.68;2.60;;;;;;;20.70;52.91;101233.34;5073253;28;20029;-51
2022/08/12 08:36:08;;;;;;;4.88;3.90;;;;;;;20.82;53.34;101230.56;5074414;28;20484;-48
2022/08/12 08:38:34;;;;;;;10.32;3.58;;;;;;;20.95;53.75;101229.44;5073716;28;20036;-50
2022/08/12 08:43:46;;;;;;;4.00;2.20;;;;;;;21.26;52.35;101226.19;5059716;28;20027;-52
2022/08/12 08:46:13;;;;;;;5.65;3.22;;;;;;;21.39;51.90;101213.28;5056691;28;20030;-52
2022/08/12 08:48:39;;;;;;;4.43;3.13;;;;;;;21.54;51.45;101213.56;5073881;28;20037;-50
2022/08/12 08:51:06;;;;;;;4.97;2.95;;;;;;;21.71;52.16;101210.84;5074284;28;20447;-49
2022/08/12 08:53:32;;;;;;;4.13;3.15;;;;;;;21.90;51.35;101208.66;5074369;28;20036;-49
2022/08/12 08:55:58;;;;;;;5.93;3.20;;;;;;;22.11;50.79;101215.25;5074006;28;20035;-50
2022/08/12 08:58:25;;;;;;;10.50;2.63;;;;;;;22.54;49.90;101219.13;5074429;28;20024;-50
2022/08/12 09:00:50;;;;;;;3.80;2.80;;;;;;;23.65;47.60;101207.91;5073912;28;20116;-48
2022/08/12 09:03:17;;;;;;;5.53;2.50;;;;;;;25.16;45.35;101204.44;5073838;28;20064;-49
2022/08/12 09:05:43;;;;;;;5.22;2.47;;;;;;;26.35;43.17;101208.72;5074550;28;20032;-49
2022/08/12 09:08:09;;;;;;;8.57;2.13;;;;;;;27.27;41.45;101203.84;5056258;28;20031;-49
2022/08/12 09:10:37;;;;;;;7.88;2.70;;;;;;;28.05;39.38;101196.50;5073682;28;20048;-49
2022/08/12 09:15:51;;;;;;;7.53;2.10;;;;;;;29.50;36.85;101175.63;5059248;28;20108;-49
2022/08/12 09:18:17;;;;;;;4.38;1.70;;;;;;;30.21;36.30;101182.88;5072689;28;20025;-53
2022/08/12 09:20:43;;;;;;;3.83;2.50;;;;;;;30.48;33.87;101188.44;5072509;28;20033;-53
2022/08/12 09:23:11;;;;;;;7.28;2.42;;;;;;;31.21;34.19;101187.59;5074108;28;20020;-49
2022/08/12 09:25:40;;;;;;;5.55;2.40;;;;;;;31.78;33.09;101178.63;5072659;28;20029;-51
2022/08/12 09:28:09;;;;;;;7.03;2.55;;;;;;;31.83;32.55;101176.53;5073398;28;20366;-54
2022/08/12 09:30:38;;;;;;;6.20;2.60;;;;;;;32.42;32.22;101180.97;5073874;28;20035;-50
2022/08/12 09:33:05;;;;;;;1.98;1.60;;;;;;;33.17;31.82;101181.72;5073002;28;20024;-53
2022/08/12 09:35:32;;;;;;;9.50;4.13;;;;;;;33.75;30.41;101179.44;5074194;28;20028;-51
2022/08/12 09:38:01;;;;;;;4.13;3.45;;;;;;;34.19;30.02;101162.50;5073171;28;20032;-58
2022/08/12 09:40:29;;;;;;;5.00;2.45;;;;;;;34.73;29.88;101174.97;5055498;28;20028;-53
2022/08/12 09:45:44;;;;;;;3.13;1.67;;;;;;;35.61;27.17;101170.97;5058943;28;20035;-50
2022/08/12 09:48:15;;;;;;;4.38;2.22;;;;;;;35.76;28.07;101157.53;5074755;28;20032;-48
2022/08/12 09:50:42;;;;;;;4.28;1.58;;;;;;;36.14;26.62;101162.72;5074324;28;20049;-49
2022/08/12 09:53:13;;;;;;;2.42;1.60;;;;;;;36.57;26.62;101149.25;5077234;28;20037;-52
2022/08/12 09:55:46;;;;;;;3.92;1.85;;;;;;;37.19;25.57;101152.69;5073926;28;20074;-47
2022/08/12 09:58:15;;;;;;;3.92;1.90;;;;;;;37.02;26.03;101156.59;5072478;28;20032;-50
2022/08/12 10:00:42;;;;;;;17.50;2.40;;;;;;;36.98;23.21;101139.69;5055674;28;20082;-49
2022/08/12 10:03:09;;;;;;;5.88;1.85;;;;;;;36.69;23.58;101154.06;5074145;28;20101;-49
2022/08/12 10:05:44;;;;;;;6.88;1.30;;;;;;;37.44;24.36;101158.94;5073565;28;20028;-50
2022/08/12 10:08:13;;;;;;;3.15;1.60;;;;;;;38.18;24.59;101146.34;5073387;28;20028;-51
2022/08/12 10:13:43;;;;;;;3.03;1.45;;;;;;;39.10;23.06;101150.31;5058365;28;20040;-50
2022/08/12 10:16:16;;;;;;;;;;;;;;;39.46;20.60;101148.16;5073878;28;20036;-48
2022/08/12 10:18:45;;;;;;;5.40;1.10;;;;;;;39.74;22.67;101144.22;5073245;28;19908;-53
2022/08/12 10:21:13;;;;;;;3.53;1.52;;;;;;;39.88;21.83;101130.38;5073248;28;20322;-49
2022/08/12 10:23:41;;;;;;;12.00;1.73;;;;;;;39.88;21.17;101138.00;5072287;28;20442;-49
2022/08/12 10:31:40;;;;;;;3.50;1.48;;;;;;;39.67;20.37;101135.66;5062649;28;20081;-50
2022/08/12 10:34:08;;;;;;;5.22;1.30;;;;;;;40.40;19.54;101118.69;5078229;28;20036;-54
2022/08/12 10:36:38;;;;;;;10.80;1.48;;;;;;;39.99;19.41;101119.31;5060395;28;20414;-49
2022/08/12 10:39:05;;;;;;;1.33;1.15;;;;;;;40.66;20.08;101117.81;5079040;28;20035;-51
2022/08/12 10:44:17;;;;;;;2.55;1.20;;;;;;;40.91;20.00;101112.44;5062605;28;20456;-53
2022/08/12 10:46:45;;;;;;;6.78;1.60;;;;;;;41.54;18.56;101104.19;5077532;28;20037;-49
2022/08/12 10:49:11;;;;;;;3.00;1.90;;;;;;;41.84;17.63;101106.84;5077215;28;20036;-51
2022/08/12 10:51:39;;;;;;;3.42;1.40;;;;;;;41.79;17.44;101104.38;5077721;28;20079;-52
2022/08/12 10:54:05;;;;;;;2.90;1.75;;;;;;;41.43;17.82;101097.66;5078100;28;20464;-53
2022/08/12 10:56:31;;;;;;;4.22;1.48;;;;;;;41.65;17.62;101088.19;5080766;28;20029;-54
2022/08/12 10:58:58;;;;;;;9.15;1.88;;;;;;;42.18;17.01;101092.53;5077637;28;20108;-51
2022/08/12 11:01:32;;;;;;;3.65;2.10;;;;;;;42.15;15.91;101088.50;5058640;28;20120;-54
2022/08/12 11:04:01;;;;;;;4.32;1.85;;;;;;;42.18;17.80;101081.22;5058244;28;20039;-50
2022/08/12 11:06:27;;;;;;;6.63;1.70;;;;;;;42.77;17.50;101072.56;5076925;28;20083;-53
2022/08/12 11:08:55;;;;;;;4.53;2.25;;;;;;;42.71;15.92;101074.19;5059878;28;20033;-50
2022/08/12 11:11:21;;;;;;;6.72;1.85;;;;;;;43.00;16.81;101066.59;5058027;28;20028;-52
2022/08/12 11:13:48;;;;;;;6.63;2.00;;;;;;;43.65;15.90;101064.53;5075867;28;20103;-55
2022/08/12 11:16:16;;;;;;;3.15;1.50;;;;;;;43.97;16.37;101054.38;5058226;28;20127;-50
2022/08/12 11:18:42;;;;;;;4.05;1.35;;;;;;;44.31;16.31;101059.50;5075906;28;20071;-50
2022/08/12 11:21:08;;;;;;;3.28;1.48;;;;;;;43.82;15.87;101062.91;5057958;28;20120;-49
2022/08/12 11:23:34;;;;;;;4.43;1.88;;;;;;;43.81;16.01;101055.63;5075941;28;20060;-48
2022/08/12 11:26:00;;;;;;;2.08;1.63;;;;;;;43.28;15.01;101068.59;5075728;28;20028;-47
2022/08/12 11:28:26;;;;;;;12.82;2.25;;;;;;;42.32;15.08;101049.44;5075702;28;20025;-48
2022/08/12 11:30:52;;;;;;;7.55;2.03;;;;;;;42.56;15.55;101038.66;5075587;28;20511;-51
2022/08/12 11:33:18;;;;;;;5.03;1.80;;;;;;;43.08;15.97;101044.78;5075786;28;20082;-48
2022/08/12 11:35:44;;;;;;;4.13;1.48;;;;;;;43.76;15.69;101043.91;5075802;28;20033;-53
2022/08/12 11:38:10;;;;;;;6.70;2.00;;;;;;;43.19;15.27;101045.59;5074969;28;20039;-49
2022/08/12 11:40:36;;;;;;;3.90;1.98;;;;;;;43.67;15.11;101044.34;5075280;28;20369;-53
2022/08/12 11:43:02;;;;;;;8.48;2.00;;;;;;;44.30;14.05;101032.41;5075425;28;20060;-50
2022/08/12 11:45:30;;;;;;;7.22;1.63;;;;;;;44.67;14.70;101034.63;5075217;28;20048;-48
2022/08/12 11:48:01;;;;;;;3.28;1.65;;;;;;;44.88;13.87;101030.84;5057290;28;20104;-51
2022/08/12 11:50:27;;;;;;;2.30;1.60;;;;;;;45.10;14.30;101019.31;5074906;28;20071;-50
2022/08/12 11:52:53;;;;;;;7.32;1.65;;;;;;;44.39;14.23;101027.09;5075128;28;20082;-50
2022/08/12 11:55:18;;;;;;;5.20;1.75;;;;;;;44.67;13.62;101028.16;5074146;28;20028;-50
2022/08/12 11:57:50;;;;;;;2.90;1.60;;;;;;;45.43;13.62;101025.53;5074957;28;20041;-52
2022/08/12 12:00:18;;;;;;;7.35;1.90;;;;;;;44.29;13.09;101023.09;5073747;28;20056;-50
2022/08/12 12:02:44;;;;;;;3.67;1.50;;;;;;;44.77;14.20;101025.25;5075068;28;20037;-52
2022/08/12 12:05:10;;;;;;;6.13;1.77;;;;;;;45.65;13.30;101018.38;5074969;28;20085;-49
2022/08/12 12:07:38;;;;;;;3.13;1.85;;;;;;;45.67;11.97;101007.41;5074869;28;20107;-49
2022/08/12 12:10:04;;;;;;;5.72;1.42;;;;;;;46.00;12.81;100995.69;5074565;28;20033;-51
2022/08/12 12:12:30;;;;;;;1.88;1.55;;;;;;;45.76;12.94;101004.09;5056957;28;20032;-51
2022/08/12 12:14:57;;;;;;;8.27;2.10;;;;;;;45.85;13.02;101006.44;5056568;28;20041;-49
2022/08/12 12:17:24;;;;;;;4.30;1.75;;;;;;;46.34;12.16;100987.09;5057012;28;20020;-50
2022/08/12 12:19:51;;;;;;;3.38;1.95;;;;;;;46.70;12.13;100995.09;5074672;28;20039;-49
2022/08/12 12:22:17;;;;;;;6.55;1.80;;;;;;;46.82;12.70;100990.84;5056803;28;20073;-52
2022/08/12 12:24:45;;;;;;;8.55;2.08;;;;;;;46.57;12.35;100985.56;5074522;28;20032;-48
2022/08/12 12:27:11;;;;;;;8.82;2.03;;;;;;;45.77;11.10;100989.47;5073549;28;20365;-52
2022/08/12 12:29:36;;;;;;;6.53;1.65;;;;;;;45.29;12.37;100986.75;5074641;28;20039;-48
2022/08/12 12:32:03;;;;;;;5.03;1.63;;;;;;;45.69;12.22;100976.59;5056518;28;20346;-52
2022/08/12 12:34:28;;;;;;;5.90;2.70;;;;;;;45.65;11.59;100972.97;5074141;28;20473;-50
2022/08/12 12:36:54;;;;;;;4.35;1.80;;;;;;;44.62;11.48;100973.53;5075031;28;20157;-52
2022/08/12 12:39:20;;;;;;;2.33;1.73;;;;;;;43.83;12.88;100970.31;5074432;28;20032;-54
2022/08/12 12:41:46;;;;;;;2.40;1.52;;;;;;;44.94;12.49;100960.34;5074598;28;20056;-51
2022/08/12 12:44:25;;;;;;;1.40;1.30;;;;;;;45.55;12.01;100957.69;5074268;28;20119;-51
2022/08/12 12:46:54;;;;;;;4.47;2.08;;;;;;;44.64;11.25;100953.28;5074452;28;20029;-49
2022/08/12 12:49:21;;;;;;;3.75;1.80;;;;;;;44.07;11.46;100954.44;5073702;28;20081;-48
2022/08/12 12:51:48;;;;;;;2.70;1.80;;;;;;;44.39;12.60;100951.44;5074677;28;20028;-48
2022/08/12 12:54:13;;;;;;;3.63;1.50;;;;;;;45.13;11.55;100962.56;5074763;28;20029;-53
2022/08/12 12:56:40;;;;;;;5.68;2.30;;;;;;;44.63;10.93;100952.50;5074251;28;20032;-50
2022/08/12 12:59:07;;;;;;;5.38;1.67;;;;;;;44.86;10.58;100939.75;5074690;28;20395;-52
2022/08/12 13:01:37;;;;;;;2.65;1.67;;;;;;;44.95;10.96;100948.59;5075216;28;20028;-54
2022/08/12 13:04:07;;;;;;;2.10;1.77;;;;;;;45.27;10.38;100940.97;5075096;28;20017;-51
2022/08/12 13:06:32;;;;;;;6.03;1.88;;;;;;;45.02;10.82;100934.34;5076991;28;20409;-50
2022/08/12 13:09:00;;;;;;;6.13;1.60;;;;;;;45.51;10.57;100944.75;5078343;28;20025;-50
2022/08/12 13:11:28;;;;;;;6.82;1.70;;;;;;;46.05;10.79;100935.59;5077886;28;20084;-51
2022/08/12 13:13:56;;;;;;;3.03;1.80;;;;;;;45.35;9.82;100936.84;5076882;28;20043;-49
2022/08/12 13:16:28;;;;;;;2.15;1.48;;;;;;;44.23;10.07;100936.97;5078249;28;20040;-48
2022/08/12 13:18:54;;;;;;;4.17;1.70;;;;;;;43.67;11.04;100948.13;5078637;28;20039;-48
2022/08/12 13:21:20;;;;;;;6.13;1.45;;;;;;;44.40;10.46;100938.06;5079119;28;20063;-49
2022/08/12 13:23:48;;;;;;;3.40;1.27;;;;;;;45.05;10.18;100924.19;5082412;28;20377;-52
2022/08/12 13:26:17;;;;;;;2.92;1.50;;;;;;;45.26;10.00;100919.50;5080504;28;20024;-49